Time;durP1;ratioP1;P1;durP2;ratioP2;P2;SDS_P1;SDS_P2;PMS_P1;PMS_P2;Temp;Humidity;BMP_temperature;BMP_pressure;BME280_temperature;BME280_humidity;BME280_pressure;Samples;Min_cycle;Max_cycle;Signal;HPM_P1;HPM_P2
2023/02/19 00:02:05;;;;;;;7.70;2.20;;;;;;;6.25;100.00;100919.09;5032184;28;20469;-70
2023/02/19 00:04:32;;;;;;;6.63;2.03;;;;;;;6.16;100.00;100918.00;5032247;28;20465;-67
2023/02/19 00:06:59;;;;;;;6.33;1.73;;;;;;;6.15;100.00;100929.81;5034957;28;20960;-68
2023/02/19 00:09:27;;;;;;;7.37;2.10;;;;;;;6.19;100.00;100920.16;5036163;28;20546;-68
2023/02/19 00:11:53;;;;;;;8.10;2.03;;;;;;;6.21;100.00;100920.72;5042363;28;20568;-67
2023/02/19 00:14:21;;;;;;;7.27;1.80;;;;;;;6.16;100.00;100920.69;5056152;28;20446;-68
2023/02/19 00:16:48;;;;;;;7.97;2.07;;;;;;;6.28;100.00;100915.88;5046916;28;20470;-68
2023/02/19 00:19:20;;;;;;;10.67;1.93;;;;;;;6.30;100.00;100921.81;5055965;28;20446;-68
2023/02/19 00:21:47;;;;;;;8.93;1.40;;;;;;;6.31;100.00;100925.31;5039644;28;20550;-68
2023/02/19 00:24:14;;;;;;;8.53;1.67;;;;;;;6.27;100.00;100916.16;5035808;28;20805;-68
2023/02/19 00:26:44;;;;;;;5.00;1.33;;;;;;;6.37;100.00;100915.38;5035095;28;20554;-68
2023/02/19 00:29:13;;;;;;;5.13;1.40;;;;;;;6.35;100.00;100912.94;5037704;28;20530;-68
2023/02/19 00:31:40;;;;;;;6.63;2.00;;;;;;;6.32;100.00;100905.41;5048107;28;20486;-68
2023/02/19 00:34:08;;;;;;;6.53;1.73;;;;;;;6.35;100.00;100899.50;5040966;28;20489;-68
2023/02/19 00:36:37;;;;;;;6.30;1.93;;;;;;;6.29;100.00;100904.06;5035788;28;20534;-68
2023/02/19 00:39:04;;;;;;;6.70;1.90;;;;;;;6.29;100.00;100893.31;5047672;28;20468;-67
2023/02/19 00:41:31;;;;;;;8.20;1.97;;;;;;;6.29;100.00;100889.81;5055603;28;20529;-68
2023/02/19 00:44:02;;;;;;;7.30;2.10;;;;;;;6.23;100.00;100897.03;5036185;28;20463;-67
2023/02/19 00:46:30;;;;;;;5.93;1.90;;;;;;;6.23;100.00;100897.03;5039627;28;20837;-67
2023/02/19 00:48:57;;;;;;;7.20;2.03;;;;;;;6.18;100.00;100890.84;5038145;28;20541;-67
2023/02/19 00:51:26;;;;;;;7.23;1.90;;;;;;;6.13;100.00;100888.94;5035049;28;20501;-67
2023/02/19 00:53:53;;;;;;;5.97;1.67;;;;;;;6.14;100.00;100885.16;5034473;28;20989;-68
2023/02/19 00:56:20;;;;;;;6.33;1.90;;;;;;;6.19;100.00;100887.88;5035367;28;20439;-68
2023/02/19 00:58:47;;;;;;;7.10;2.07;;;;;;;6.19;100.00;100885.19;5036397;28;20467;-68
2023/02/19 01:01:16;;;;;;;8.00;2.30;;;;;;;6.23;100.00;100888.97;5034772;28;20570;-68
2023/02/19 01:03:42;;;;;;;9.33;2.27;;;;;;;6.24;100.00;100877.16;5035285;28;20527;-68
2023/02/19 01:06:10;;;;;;;12.13;3.37;;;;;;;6.03;100.00;100878.16;5041351;28;20458;-68
2023/02/19 01:08:37;;;;;;;8.97;2.80;;;;;;;6.05;100.00;100878.69;5047645;28;20830;-68
2023/02/19 01:11:05;;;;;;;12.80;3.40;;;;;;;6.07;100.00;100869.28;5034786;28;20963;-68
2023/02/19 01:13:33;;;;;;;8.77;3.10;;;;;;;6.10;100.00;100867.94;5034577;28;20570;-67
2023/02/19 01:16:03;;;;;;;7.33;2.77;;;;;;;6.07;100.00;100863.13;5034616;28;20542;-67
2023/02/19 01:18:32;;;;;;;7.47;2.73;;;;;;;6.08;100.00;100853.97;5036087;28;20466;-68
2023/02/19 01:20:59;;;;;;;9.70;3.53;;;;;;;6.06;100.00;100853.41;5041956;28;20489;-69
2023/02/19 01:23:26;;;;;;;6.60;2.50;;;;;;;6.01;100.00;100842.63;5034588;28;20542;-66
2023/02/19 01:25:52;;;;;;;10.73;2.97;;;;;;;5.93;100.00;100835.91;5034931;28;20437;-68
2023/02/19 01:28:19;;;;;;;6.80;2.30;;;;;;;5.92;100.00;100823.53;5036683;28;20473;-67
2023/02/19 01:30:46;;;;;;;6.93;2.30;;;;;;;5.90;100.00;100832.91;5047382;28;20482;-69
2023/02/19 01:33:12;;;;;;;8.60;2.50;;;;;;;5.90;100.00;100839.09;5054327;28;20481;-68
2023/02/19 01:35:40;;;;;;;7.00;1.90;;;;;;;5.92;100.00;100838.84;5039374;28;20495;-67
2023/02/19 01:38:07;;;;;;;11.53;2.73;;;;;;;5.94;100.00;100839.41;5034692;28;20526;-68
2023/02/19 01:40:34;;;;;;;9.27;3.10;;;;;;;5.93;100.00;100829.69;5036277;28;20549;-67
2023/02/19 01:43:02;;;;;;;7.30;2.70;;;;;;;5.94;100.00;100831.34;5034537;28;20435;-68
2023/02/19 01:45:29;;;;;;;6.70;2.40;;;;;;;5.90;100.00;100835.59;5034060;28;20469;-68
2023/02/19 01:48:05;;;;;;;6.67;2.47;;;;;;;5.90;100.00;100831.03;5034198;28;20478;-68
2023/02/19 01:50:37;;;;;;;7.87;2.90;;;;;;;5.91;100.00;100821.06;5036775;28;20492;-68
2023/02/19 01:53:08;;;;;;;6.70;2.43;;;;;;;5.92;100.00;100814.66;5043927;28;20470;-68
2023/02/19 01:55:35;;;;;;;6.37;1.87;;;;;;;5.86;100.00;100813.00;5040708;28;20491;-68
2023/02/19 01:58:03;;;;;;;8.40;2.70;;;;;;;5.81;100.00;100817.28;5034454;28;20443;-68
2023/02/19 02:00:30;;;;;;;7.93;2.97;;;;;;;5.78;100.00;100801.66;5033424;28;21016;-68
2023/02/19 02:02:58;;;;;;;7.33;2.10;;;;;;;5.71;100.00;100801.13;5034113;28;20517;-67
2023/02/19 02:05:55;;;;;;;7.00;2.23;;;;;;;5.75;100.00;100791.44;5039930;28;20459;-66
2023/02/19 02:11:09;;;;;;;6.87;1.83;;;;;;;5.66;100.00;100801.09;5034452;28;20477;-68
2023/02/19 02:13:38;;;;;;;7.20;2.43;;;;;;;5.61;100.00;100808.31;5033584;28;21058;-68
2023/02/19 02:16:17;;;;;;;6.50;2.03;;;;;;;5.78;100.00;100800.88;5035675;28;20491;-68
2023/02/19 02:18:58;;;;;;;7.40;2.40;;;;;;;5.79;100.00;100799.78;5033668;28;20961;-67
2023/02/19 02:21:53;;;;;;;5.90;1.90;;;;;;;5.74;100.00;100803.28;5042717;28;20557;-67
2023/02/19 02:24:44;;;;;;;6.80;2.20;;;;;;;5.77;100.00;100805.44;5039281;28;20455;-67
2023/02/19 02:27:43;;;;;;;7.10;2.50;;;;;;;5.76;100.00;100801.16;5037228;28;20460;-67
2023/02/19 02:30:20;;;;;;;8.87;2.90;;;;;;;5.68;100.00;100801.66;5031828;28;20487;-67
2023/02/19 02:32:54;;;;;;;7.07;2.20;;;;;;;5.70;100.00;100806.75;5033634;28;20467;-68
2023/02/19 02:35:23;;;;;;;8.10;2.30;;;;;;;5.64;100.00;100795.19;5035169;28;20572;-67
2023/02/19 02:37:51;;;;;;;6.53;1.80;;;;;;;5.70;100.00;100793.31;5033224;28;20443;-67
2023/02/19 02:40:19;;;;;;;7.40;2.57;;;;;;;5.64;100.00;100797.88;5040837;28;20482;-67
2023/02/19 02:42:46;;;;;;;8.47;3.03;;;;;;;5.70;100.00;100799.50;5053099;28;20434;-68
2023/02/19 02:45:37;;;;;;;7.60;2.40;;;;;;;5.70;100.00;100794.13;5050511;28;20482;-68
2023/02/19 02:48:27;;;;;;;9.37;3.03;;;;;;;5.63;100.00;100804.31;5053335;28;20446;-68
2023/02/19 02:50:58;;;;;;;10.30;2.77;;;;;;;5.55;100.00;100802.13;5034923;28;20578;-68
2023/02/19 02:56:16;;;;;;;6.60;2.20;;;;;;;5.37;100.00;100800.69;5036328;28;20470;-67
2023/02/19 02:58:44;;;;;;;10.40;2.93;;;;;;;5.32;100.00;100808.72;5033293;28;20447;-68
2023/02/19 03:04:05;;;;;;;9.80;3.47;;;;;;;5.27;100.00;100806.81;5033138;28;20519;-67
2023/02/19 03:06:35;;;;;;;8.30;2.87;;;;;;;5.25;100.00;100803.56;5035015;28;20847;-68
2023/02/19 03:09:09;;;;;;;7.33;2.33;;;;;;;5.27;100.00;100806.03;5033163;28;20534;-67
2023/02/19 03:20:08;;;;;;;8.60;2.90;;;;;;;5.14;100.00;100828.75;5034932;28;20908;-68
2023/02/19 03:22:38;;;;;;;8.00;2.87;;;;;;;5.03;100.00;100827.06;5032949;28;20506;-68
2023/02/19 03:27:55;;;;;;;8.03;2.40;;;;;;;4.83;100.00;100826.94;5032611;28;20407;-68
2023/02/19 03:30:28;;;;;;;11.03;3.00;;;;;;;4.85;100.00;100824.78;5035108;28;21037;-68
2023/02/19 03:33:00;;;;;;;10.27;3.30;;;;;;;4.76;100.00;100824.44;5032871;28;20561;-68
2023/02/19 03:35:31;;;;;;;8.67;2.53;;;;;;;4.52;100.00;100830.16;5034336;28;20458;-68
2023/02/19 03:38:04;;;;;;;7.70;1.97;;;;;;;4.40;100.00;100828.69;5032853;28;20537;-68
2023/02/19 03:40:38;;;;;;;6.50;1.70;;;;;;;4.26;100.00;100829.09;5032393;28;20563;-68
2023/02/19 03:43:15;;;;;;;7.80;2.53;;;;;;;4.26;100.00;100833.66;5053017;28;20486;-68
2023/02/19 03:45:53;;;;;;;7.93;2.67;;;;;;;4.15;100.00;100832.72;5042021;28;20465;-68
2023/02/19 03:48:30;;;;;;;7.80;2.20;;;;;;;4.20;100.00;100829.28;5036949;28;20820;-68
2023/02/19 03:51:10;;;;;;;6.53;1.77;;;;;;;4.06;100.00;100839.59;5060643;23;20494;-72
2023/02/19 03:53:51;;;;;;;7.77;1.90;;;;;;;3.90;100.00;100840.50;5036662;28;20565;-74
2023/02/19 03:56:26;;;;;;;6.50;1.87;;;;;;;3.85;100.00;100851.13;5035019;28;20465;-74
2023/02/19 03:58:59;;;;;;;7.83;2.27;;;;;;;3.81;100.00;100850.84;5036698;28;20534;-74
2023/02/19 04:01:31;;;;;;;16.13;1.80;;;;;;;3.83;100.00;100854.09;5035723;28;20482;-75
2023/02/19 04:04:04;;;;;;;10.23;1.87;;;;;;;3.85;100.00;100849.31;5036688;28;20424;-74
2023/02/19 04:06:33;;;;;;;8.97;1.97;;;;;;;3.80;100.00;100858.06;5035145;28;20459;-76
2023/02/19 04:09:03;;;;;;;13.10;1.93;;;;;;;3.84;100.00;100852.22;5036335;28;20475;-75
2023/02/19 04:11:32;;;;;;;8.60;1.80;;;;;;;3.91;100.00;100853.66;5035828;28;20522;-74
2023/02/19 04:14:04;;;;;;;12.40;1.90;;;;;;;3.84;100.00;100850.34;5036173;28;21007;-75
2023/02/19 04:16:34;;;;;;;8.30;2.03;;;;;;;3.90;100.00;100852.03;5034829;28;20831;-74
2023/02/19 04:19:10;;;;;;;7.93;2.30;;;;;;;3.70;100.00;100857.13;5031754;28;20464;-75
2023/02/19 04:21:39;;;;;;;7.83;1.83;;;;;;;3.61;100.00;100870.13;5023943;28;20890;-74
2023/02/19 04:24:10;;;;;;;11.70;2.00;;;;;;;3.60;100.00;100871.19;5036684;28;20466;-75
2023/02/19 04:26:37;;;;;;;9.90;1.43;;;;;;;3.63;100.00;100869.88;5034560;28;20538;-75
2023/02/19 04:29:03;;;;;;;8.13;2.03;;;;;;;3.47;100.00;100874.22;5035958;28;20481;-76
2023/02/19 04:31:34;;;;;;;11.37;1.90;;;;;;;3.56;100.00;100878.09;5034188;28;20589;-75
2023/02/19 04:34:03;;;;;;;7.63;2.43;;;;;;;3.58;100.00;100880.53;5036326;28;20482;-74
2023/02/19 04:36:30;;;;;;;7.77;2.33;;;;;;;3.67;100.00;100885.22;5034147;28;20455;-74
2023/02/19 04:38:57;;;;;;;6.87;1.90;;;;;;;3.68;100.00;100881.50;5016248;28;20483;-74
2023/02/19 04:41:23;;;;;;;11.73;2.50;;;;;;;3.73;100.00;100884.25;5033630;28;20489;-74
2023/02/19 04:43:50;;;;;;;7.30;2.33;;;;;;;3.59;100.00;100882.97;5034571;28;20448;-73
2023/02/19 04:46:16;;;;;;;11.57;2.23;;;;;;;3.46;100.00;100884.13;5035373;28;20919;-74
2023/02/19 04:48:43;;;;;;;7.50;2.40;;;;;;;3.36;100.00;100886.66;5034527;28;21027;-74
2023/02/19 04:51:11;;;;;;;7.33;2.30;;;;;;;3.36;100.00;100889.31;5033205;28;20495;-75
2023/02/19 04:53:38;;;;;;;6.97;1.83;;;;;;;3.51;100.00;100894.09;5035055;28;20489;-74
2023/02/19 04:56:08;;;;;;;9.30;2.13;;;;;;;3.44;100.00;100885.44;5034351;28;20975;-74
2023/02/19 04:58:35;;;;;;;6.07;2.07;;;;;;;3.49;100.00;100894.34;5034654;28;20592;-75
2023/02/19 05:01:02;;;;;;;7.60;2.47;;;;;;;3.56;100.00;100888.81;5035259;28;20463;-75
2023/02/19 05:03:29;;;;;;;9.33;2.20;;;;;;;3.70;100.00;100890.06;5035028;28;20455;-74
2023/02/19 05:05:55;;;;;;;6.97;2.07;;;;;;;3.71;100.00;100896.25;5035162;28;20542;-76
2023/02/19 05:08:23;;;;;;;7.10;2.03;;;;;;;3.63;100.00;100904.69;5034403;28;20843;-76
2023/02/19 05:10:50;;;;;;;7.67;2.40;;;;;;;3.49;100.00;100904.25;5035076;28;20962;-75
2023/02/19 05:13:16;;;;;;;7.13;1.97;;;;;;;3.46;100.00;100897.53;5034187;28;20522;-75
2023/02/19 05:15:53;;;;;;;6.53;1.90;;;;;;;3.34;100.00;100901.34;5035405;28;20468;-76
2023/02/19 05:18:20;;;;;;;7.07;2.07;;;;;;;3.29;100.00;100897.53;5034333;28;20461;-75
2023/02/19 05:20:46;;;;;;;7.40;2.10;;;;;;;3.16;100.00;100892.53;5035088;28;20455;-74
2023/02/19 05:23:13;;;;;;;8.67;2.00;;;;;;;3.14;100.00;100899.97;5033775;28;20459;-75
2023/02/19 05:25:41;;;;;;;5.20;1.20;;;;;;;3.20;100.00;100901.69;5034763;28;20455;-75
2023/02/19 05:28:16;;;;;;;9.93;2.07;;;;;;;3.28;100.00;100895.13;5034375;28;20491;-75
2023/02/19 05:30:43;;;;;;;6.00;1.60;;;;;;;3.34;100.00;100896.00;5034351;28;20466;-74
2023/02/19 05:33:10;;;;;;;6.67;1.83;;;;;;;3.39;100.00;100901.41;5034859;28;20489;-75
2023/02/19 05:35:41;;;;;;;7.00;1.60;;;;;;;3.40;100.00;100892.31;5034878;28;20457;-75
2023/02/19 05:38:08;;;;;;;6.57;1.77;;;;;;;3.40;100.00;100903.03;5033846;28;20459;-74
2023/02/19 05:40:35;;;;;;;7.43;1.83;;;;;;;3.42;100.00;100908.97;5034869;28;20846;-74
2023/02/19 05:43:04;;;;;;;7.27;1.50;;;;;;;3.43;100.00;100902.56;5033423;28;20506;-74
2023/02/19 05:45:30;;;;;;;7.83;2.33;;;;;;;3.46;100.00;100910.91;5034090;28;20466;-74
2023/02/19 05:47:57;;;;;;;8.90;2.50;;;;;;;3.55;100.00;100908.63;5034431;28;20549;-74
2023/02/19 05:50:24;;;;;;;13.53;2.30;;;;;;;3.61;100.00;100909.50;5032893;28;20607;-76
2023/02/19 05:52:50;;;;;;;7.63;2.47;;;;;;;3.65;100.00;100913.31;5034119;28;20471;-75
2023/02/19 05:55:17;;;;;;;5.80;1.63;;;;;;;3.70;100.00;100903.47;5033258;28;20445;-76
2023/02/19 05:57:46;;;;;;;7.80;2.27;;;;;;;3.77;100.00;100906.78;5033634;28;20485;-74
2023/02/19 06:00:16;;;;;;;13.17;3.60;;;;;;;3.75;100.00;100905.41;5032489;28;20498;-73
2023/02/19 06:02:43;;;;;;;6.40;1.77;;;;;;;3.80;100.00;100906.28;5034124;28;20469;-74
2023/02/19 06:05:10;;;;;;;6.50;1.53;;;;;;;3.75;100.00;100914.25;5033626;28;20453;-75
2023/02/19 06:07:38;;;;;;;7.83;1.93;;;;;;;3.69;100.00;100917.13;5033731;28;20948;-77
2023/02/19 06:10:05;;;;;;;7.27;2.40;;;;;;;3.72;100.00;100920.13;5032753;28;20456;-74
2023/02/19 06:12:32;;;;;;;9.40;1.80;;;;;;;3.72;100.00;100906.72;5033701;28;20514;-76
2023/02/19 06:14:59;;;;;;;7.07;2.07;;;;;;;3.72;100.00;100903.25;5033222;28;20570;-75
2023/02/19 06:17:27;;;;;;;10.97;2.60;;;;;;;3.73;100.00;100894.94;5032207;28;20471;-67
2023/02/19 06:19:53;;;;;;;8.03;2.13;;;;;;;3.70;100.00;100900.78;5013873;28;20450;-69
2023/02/19 06:22:20;;;;;;;6.67;1.60;;;;;;;3.71;100.00;100902.41;5031253;28;20926;-73
2023/02/19 06:24:47;;;;;;;7.90;1.77;;;;;;;3.69;100.00;100912.56;5033882;28;20516;-68
2023/02/19 06:27:14;;;;;;;7.63;1.83;;;;;;;3.69;100.00;100925.97;5032540;28;20964;-69
2023/02/19 06:29:40;;;;;;;7.83;2.23;;;;;;;3.73;100.00;100932.44;5032364;28;20470;-68
2023/02/19 06:32:07;;;;;;;9.17;2.50;;;;;;;3.71;100.00;100945.28;5032808;28;20545;-68
2023/02/19 06:34:36;;;;;;;8.83;1.93;;;;;;;3.77;100.00;100948.84;5033722;28;20573;-69
2023/02/19 06:37:03;;;;;;;7.10;2.00;;;;;;;3.72;100.00;100954.16;5032145;28;20467;-69
2023/02/19 06:39:30;;;;;;;7.80;1.90;;;;;;;3.72;100.00;100968.34;5033789;28;20449;-69
2023/02/19 06:41:57;;;;;;;7.60;2.40;;;;;;;3.76;100.00;100974.00;5032350;28;20552;-69
2023/02/19 06:44:23;;;;;;;7.20;1.93;;;;;;;3.77;100.00;100975.66;5033785;28;20530;-70
2023/02/19 06:46:50;;;;;;;8.17;2.40;;;;;;;3.80;100.00;100977.81;5032290;28;20834;-69
2023/02/19 06:49:17;;;;;;;6.50;1.93;;;;;;;3.77;100.00;100981.81;5033313;28;20454;-69
2023/02/19 06:51:45;;;;;;;6.53;1.60;;;;;;;3.76;100.00;100980.19;5031780;28;20491;-68
2023/02/19 06:54:12;;;;;;;6.47;1.70;;;;;;;3.70;100.00;100985.72;5033380;28;20490;-68
2023/02/19 06:56:41;;;;;;;7.37;2.17;;;;;;;3.68;100.00;100998.53;5036288;28;20462;-68
2023/02/19 06:59:10;;;;;;;7.13;1.93;;;;;;;3.61;100.00;100998.69;5046720;28;20459;-68
2023/02/19 07:01:37;;;;;;;12.43;2.50;;;;;;;3.65;100.00;101001.69;5029883;28;21010;-70
2023/02/19 07:04:04;;;;;;;8.40;2.47;;;;;;;3.60;100.00;101004.31;5032677;28;20542;-69
2023/02/19 07:06:31;;;;;;;7.63;1.90;;;;;;;3.63;100.00;101007.31;5032497;28;20555;-69
2023/02/19 07:09:00;;;;;;;6.20;1.60;;;;;;;3.64;100.00;101008.13;5033523;28;20494;-69
2023/02/19 07:11:29;;;;;;;12.63;2.00;;;;;;;3.70;100.00;101007.13;5030113;28;20553;-70
2023/02/19 07:13:56;;;;;;;6.17;1.57;;;;;;;3.70;100.00;101017.84;5033584;28;20499;-68
2023/02/19 07:16:24;;;;;;;19.17;2.20;;;;;;;3.73;100.00;101018.19;5033547;28;20831;-69
2023/02/19 07:18:50;;;;;;;8.10;2.13;;;;;;;3.69;100.00;101022.41;5037773;28;20466;-69
2023/02/19 07:21:18;;;;;;;7.07;2.07;;;;;;;3.68;100.00;101019.97;5039303;28;20853;-69
2023/02/19 07:23:45;;;;;;;7.20;2.10;;;;;;;3.71;100.00;101025.63;5037681;28;20465;-68
2023/02/19 07:26:15;;;;;;;6.17;1.93;;;;;;;3.75;100.00;101031.31;5039756;28;20446;-68
2023/02/19 07:28:42;;;;;;;8.07;2.23;;;;;;;3.71;100.00;101032.84;5038206;28;20455;-69
2023/02/19 07:31:08;;;;;;;9.60;2.10;;;;;;;3.68;100.00;101036.84;5037856;28;20487;-70
2023/02/19 07:33:35;;;;;;;11.90;2.83;;;;;;;3.63;100.00;101044.81;5036224;28;20489;-66
2023/02/19 07:36:02;;;;;;;8.73;2.73;;;;;;;3.69;100.00;101043.81;5027178;28;20992;-69
2023/02/19 07:38:29;;;;;;;6.40;1.80;;;;;;;3.74;100.00;101046.59;5036545;28;20538;-67
2023/02/19 07:40:57;;;;;;;6.93;1.90;;;;;;;3.74;100.00;101056.50;5039305;28;20474;-69
2023/02/19 07:43:27;;;;;;;9.53;2.00;;;;;;;3.77;100.00;101051.47;5038547;28;20469;-67
2023/02/19 07:45:53;;;;;;;7.93;2.60;;;;;;;3.75;100.00;101048.19;5039509;28;20529;-69
2023/02/19 07:48:21;;;;;;;8.57;2.10;;;;;;;3.77;100.00;101062.19;5038280;28;20830;-71
2023/02/19 07:50:51;;;;;;;6.57;1.30;;;;;;;3.77;100.00;101072.91;5036978;28;20567;-67
2023/02/19 07:53:18;;;;;;;6.77;1.80;;;;;;;3.79;100.00;101080.69;5038324;28;20455;-67
2023/02/19 07:55:44;;;;;;;6.67;2.33;;;;;;;3.78;100.00;101095.13;5037771;28;20463;-69
2023/02/19 07:58:11;;;;;;;9.37;1.93;;;;;;;3.80;100.00;101093.81;5038762;28;20462;-67
2023/02/19 08:00:39;;;;;;;13.90;2.33;;;;;;;3.85;100.00;101098.47;5037141;28;20463;-68
2023/02/19 08:03:05;;;;;;;8.63;2.47;;;;;;;3.88;100.00;101106.00;5038739;28;20458;-67
2023/02/19 08:05:33;;;;;;;12.70;3.00;;;;;;;3.90;100.00;101103.91;5038548;28;20533;-69
2023/02/19 08:08:00;;;;;;;8.50;2.73;;;;;;;3.91;100.00;101112.78;5038320;28;20911;-69
2023/02/19 08:13:22;;;;;;;10.43;3.00;;;;;;;3.91;100.00;101120.81;5032826;28;20458;-67
2023/02/19 08:15:52;;;;;;;7.07;1.97;;;;;;;3.92;100.00;101128.59;5037121;28;20461;-67
2023/02/19 08:18:20;;;;;;;5.90;1.57;;;;;;;3.97;100.00;101130.53;5019369;28;20440;-66
2023/02/19 08:20:47;;;;;;;5.70;1.50;;;;;;;3.98;100.00;101138.31;5033816;28;20829;-66
2023/02/19 08:23:14;;;;;;;8.90;2.43;;;;;;;3.96;100.00;101140.44;5026837;28;20454;-66
2023/02/19 08:25:41;;;;;;;5.30;1.43;;;;;;;3.97;100.00;101152.78;5026190;28;20432;-66
2023/02/19 08:28:09;;;;;;;8.43;2.80;;;;;;;4.02;100.00;101150.19;5016334;28;20475;-66
2023/02/19 08:30:37;;;;;;;6.10;1.80;;;;;;;3.97;100.00;101163.50;5016364;28;20494;-67
2023/02/19 08:33:06;;;;;;;7.97;2.50;;;;;;;4.04;100.00;101168.72;5035606;28;20489;-67
2023/02/19 08:35:35;;;;;;;8.27;2.10;;;;;;;4.08;100.00;101171.75;5033327;28;20487;-69
2023/02/19 08:38:01;;;;;;;6.47;1.40;;;;;;;4.14;100.00;101168.88;5015893;28;20455;-67
2023/02/19 08:40:28;;;;;;;5.30;1.60;;;;;;;4.12;100.00;101172.84;5025992;28;20466;-67
2023/02/19 08:42:55;;;;;;;7.07;1.80;;;;;;;4.20;100.00;101178.63;5033070;28;20540;-68
2023/02/19 08:45:23;;;;;;;6.23;1.90;;;;;;;4.26;100.00;101187.59;5035050;28;20457;-67
2023/02/19 08:47:49;;;;;;;5.70;1.57;;;;;;;4.27;100.00;101181.97;5035273;28;20858;-67
2023/02/19 08:50:17;;;;;;;8.10;2.03;;;;;;;4.36;100.00;101190.41;5034332;28;20975;-68
2023/02/19 08:52:44;;;;;;;6.43;1.40;;;;;;;4.39;100.00;101203.34;5035043;28;20475;-68
2023/02/19 08:55:10;;;;;;;6.57;1.80;;;;;;;4.44;100.00;101205.28;5034492;28;20574;-67
2023/02/19 08:57:37;;;;;;;6.57;1.50;;;;;;;4.40;100.00;101204.97;5034198;28;20468;-67
2023/02/19 09:00:05;;;;;;;5.33;1.20;;;;;;;4.37;100.00;101200.06;5034652;28;20862;-68
2023/02/19 09:02:31;;;;;;;5.70;1.33;;;;;;;4.48;100.00;101212.59;5032499;28;20485;-67
2023/02/19 09:04:58;;;;;;;11.47;1.63;;;;;;;4.57;100.00;101204.16;5034991;28;20443;-67
2023/02/19 09:07:26;;;;;;;5.47;1.50;;;;;;;4.46;100.00;101225.44;5032164;28;20470;-67
2023/02/19 09:09:53;;;;;;;5.57;1.13;;;;;;;4.55;100.00;101215.09;5033460;28;20459;-66
2023/02/19 09:12:20;;;;;;;12.27;1.50;;;;;;;4.64;100.00;101210.94;5032505;28;20483;-67
2023/02/19 09:14:47;;;;;;;8.07;2.90;;;;;;;4.74;100.00;101210.31;5034316;28;20530;-67
2023/02/19 09:17:14;;;;;;;6.57;1.37;;;;;;;4.85;100.00;101219.31;5032975;28;20459;-67
2023/02/19 09:19:40;;;;;;;5.03;1.20;;;;;;;4.93;100.00;101221.56;5032750;28;20501;-67
2023/02/19 09:22:07;;;;;;;6.60;1.57;;;;;;;5.04;100.00;101226.00;5030473;28;20482;-67
2023/02/19 09:24:35;;;;;;;9.87;1.80;;;;;;;5.07;100.00;101236.25;5034756;28;20477;-67
2023/02/19 09:27:01;;;;;;;7.30;2.03;;;;;;;4.98;100.00;101229.69;5034803;28;20952;-67
2023/02/19 09:29:28;;;;;;;6.97;1.57;;;;;;;5.11;100.00;101239.25;5034907;28;20454;-68
2023/02/19 09:31:59;;;;;;;7.30;1.90;;;;;;;5.21;100.00;101234.81;5034775;28;20470;-68
2023/02/19 09:34:26;;;;;;;6.30;1.10;;;;;;;5.13;100.00;101251.34;5034707;28;20482;-67
2023/02/19 09:36:53;;;;;;;5.23;1.10;;;;;;;5.05;100.00;101244.56;5034819;28;20439;-67
2023/02/19 09:39:20;;;;;;;5.37;1.30;;;;;;;5.00;100.00;101252.56;5034600;28;20450;-67
2023/02/19 09:41:51;;;;;;;15.80;1.33;;;;;;;5.12;100.00;101254.31;5034592;28;20466;-67
2023/02/19 09:44:24;;;;;;;11.00;1.90;;;;;;;5.17;100.00;101251.69;5034527;28;20428;-67
2023/02/19 09:46:53;;;;;;;7.50;1.27;;;;;;;5.12;100.00;101259.66;5034304;28;20914;-67
2023/02/19 09:49:23;;;;;;;8.80;1.67;;;;;;;5.28;99.11;101256.94;5034187;28;20448;-67
2023/02/19 09:51:56;;;;;;;6.50;1.27;;;;;;;5.25;98.39;101268.19;5033966;28;20933;-68
2023/02/19 09:54:26;;;;;;;6.67;1.10;;;;;;;5.30;96.71;101273.63;5034171;28;20566;-68
2023/02/19 09:56:56;;;;;;;6.77;1.23;;;;;;;5.42;97.42;101280.75;5034070;28;20432;-67
2023/02/19 09:59:26;;;;;;;8.03;1.03;;;;;;;5.52;97.57;101287.06;5034354;28;20873;-68
2023/02/19 10:02:01;;;;;;;7.37;1.40;;;;;;;5.55;94.64;101275.00;5034191;28;20478;-68
2023/02/19 10:04:28;;;;;;;8.23;0.90;;;;;;;5.59;93.78;101284.19;5034301;28;20513;-68
2023/02/19 10:07:02;;;;;;;5.40;1.20;;;;;;;5.63;94.99;101285.31;5033878;28;20467;-68
2023/02/19 10:09:30;;;;;;;5.27;1.03;;;;;;;5.68;93.54;101287.25;5034134;28;20443;-68
2023/02/19 10:11:59;;;;;;;5.73;1.13;;;;;;;5.66;91.75;101298.25;5033986;28;20833;-67
2023/02/19 10:14:32;;;;;;;4.70;0.90;;;;;;;5.65;90.77;101299.31;5033806;28;20482;-68
2023/02/19 10:17:02;;;;;;;4.67;0.93;;;;;;;5.70;93.58;101303.94;5034029;28;20438;-66
2023/02/19 10:19:28;;;;;;;7.50;1.37;;;;;;;5.86;93.20;101321.88;5033526;28;20443;-68
2023/02/19 10:21:56;;;;;;;4.70;0.77;;;;;;;5.89;91.57;101318.69;5033829;28;20469;-67
2023/02/19 10:24:26;;;;;;;6.03;1.20;;;;;;;5.94;91.81;101318.78;5033914;28;20533;-67
2023/02/19 10:26:53;;;;;;;11.43;1.27;;;;;;;6.10;91.08;101321.63;5033534;28;20534;-67
2023/02/19 10:29:23;;;;;;;7.10;0.90;;;;;;;6.01;87.39;101327.44;5033588;28;20539;-67
2023/02/19 10:32:10;;;;;;;5.87;1.00;;;;;;;5.96;86.39;101323.91;5033214;28;20467;-67
2023/02/19 10:34:36;;;;;;;5.87;0.80;;;;;;;5.95;85.71;101328.47;5033049;28;20494;-67
2023/02/19 10:37:03;;;;;;;4.80;0.90;;;;;;;6.10;85.09;101340.44;5033357;28;20546;-67
2023/02/19 10:39:41;;;;;;;4.67;0.83;;;;;;;6.31;87.51;101350.38;5033629;28;20439;-67
2023/02/19 10:42:15;;;;;;;4.40;0.77;;;;;;;6.43;85.04;101347.53;5033355;28;20976;-67
2023/02/19 10:44:45;;;;;;;6.77;0.70;;;;;;;6.45;87.03;101348.88;5033682;28;20851;-67
2023/02/19 10:47:18;;;;;;;5.27;0.80;;;;;;;6.47;85.75;101354.03;5033499;28;20447;-67
2023/02/19 10:49:47;;;;;;;5.00;0.87;;;;;;;6.57;80.90;101354.94;5033194;28;20519;-67
2023/02/19 10:52:17;;;;;;;5.17;0.70;;;;;;;6.45;80.17;101369.59;5032583;28;20499;-67
2023/02/19 10:54:45;;;;;;;6.77;0.63;;;;;;;6.51;80.45;101364.03;5033363;28;20479;-67
2023/02/19 10:57:32;;;;;;;4.20;0.60;;;;;;;6.44;82.46;101368.00;5033472;28;20435;-67
2023/02/19 11:00:02;;;;;;;8.83;1.27;;;;;;;6.53;81.24;101382.59;5033469;28;20501;-67
2023/02/19 11:02:31;;;;;;;4.00;0.40;;;;;;;6.48;76.98;101390.63;5033221;28;20455;-68
2023/02/19 11:05:19;;;;;;;4.40;0.50;;;;;;;6.81;77.70;101400.34;5033258;28;20535;-67
2023/02/19 11:07:49;;;;;;;4.10;0.50;;;;;;;7.10;77.80;101405.47;5027284;28;20964;-67
2023/02/19 11:10:27;;;;;;;4.20;0.50;;;;;;;7.16;76.16;101391.75;5033187;28;20455;-67
2023/02/19 11:12:56;;;;;;;8.00;0.90;;;;;;;7.21;76.14;101399.88;5033190;28;20502;-67
2023/02/19 11:15:29;;;;;;;4.30;0.60;;;;;;;7.16;75.23;101421.41;5032991;28;20487;-67
2023/02/19 11:17:58;;;;;;;4.40;0.70;;;;;;;7.20;73.04;101414.44;5033192;28;20545;-67
2023/02/19 11:20:26;;;;;;;5.07;1.13;;;;;;;7.23;73.78;101418.50;5032936;28;20483;-67
2023/02/19 11:23:00;;;;;;;4.30;0.70;;;;;;;7.36;71.11;101423.44;5032915;28;20830;-67
2023/02/19 11:25:27;;;;;;;13.23;1.40;;;;;;;7.37;73.35;101413.47;5032957;28;20525;-67
2023/02/19 11:27:56;;;;;;;4.03;0.57;;;;;;;7.32;72.74;101415.06;5032916;28;20467;-67
2023/02/19 11:30:40;;;;;;;6.30;0.70;;;;;;;7.47;71.79;101416.22;5032989;28;20538;-67
2023/02/19 11:33:25;;;;;;;5.60;0.70;;;;;;;7.51;70.52;101431.63;5032485;28;20455;-67
2023/02/19 11:35:57;;;;;;;4.50;0.60;;;;;;;7.51;72.67;101431.63;5032556;28;20973;-67
2023/02/19 11:38:24;;;;;;;6.33;0.70;;;;;;;7.66;71.30;101428.25;5032657;28;20917;-68
2023/02/19 11:40:59;;;;;;;5.13;0.93;;;;;;;8.01;70.70;101445.66;5032795;28;20477;-67
2023/02/19 11:43:40;;;;;;;4.50;0.70;;;;;;;8.99;66.47;101428.72;5032536;28;20433;-67
2023/02/19 11:46:16;;;;;;;4.30;0.60;;;;;;;9.64;59.68;101429.72;5032906;28;20431;-68
2023/02/19 11:48:53;;;;;;;4.97;0.50;;;;;;;9.35;59.17;101422.22;5032557;28;20766;-68
2023/02/19 11:51:37;;;;;;;5.93;0.70;;;;;;;9.69;59.20;101426.19;5032245;28;20478;-67
2023/02/19 11:54:18;;;;;;;5.30;0.80;;;;;;;10.24;59.81;101429.81;5032697;28;20434;-67
2023/02/19 11:56:50;;;;;;;4.87;0.73;;;;;;;11.07;57.81;101431.78;5032526;28;20467;-67
2023/02/19 11:59:26;;;;;;;5.00;1.10;;;;;;;10.69;54.38;101439.63;5032371;28;20427;-67
2023/02/19 12:02:19;;;;;;;5.10;0.83;;;;;;;9.58;58.09;101447.88;5032311;28;20557;-67